createdAt,value
2023-02-25T00:09:35.608Z,1002.61
2023-02-25T00:19:35.668Z,1002.74
2023-02-25T00:29:35.992Z,1002.60
2023-02-25T00:39:36.075Z,1003.10
2023-02-25T00:49:36.153Z,1003.25
2023-02-25T00:59:36.393Z,1003.40
2023-02-25T01:09:36.714Z,1002.90
2023-02-25T01:19:36.753Z,1003.20
2023-02-25T01:29:37.210Z,1003.10
2023-02-25T01:39:37.242Z,1002.93
2023-02-25T01:49:37.573Z,1003.06
2023-02-25T01:59:37.599Z,1003.36
2023-02-25T02:09:38.856Z,1003.22
2023-02-25T02:19:38.104Z,1003.71
2023-02-25T02:29:38.422Z,1003.53
2023-02-25T02:39:38.461Z,1003.61
2023-02-25T02:49:38.777Z,1003.52
2023-02-25T02:59:38.877Z,1003.45
2023-02-25T03:09:38.936Z,1003.64
2023-02-25T03:19:39.178Z,1003.72
2023-02-25T03:29:41.671Z,1003.96
2023-02-25T03:39:39.508Z,1003.95
2023-02-25T03:49:39.813Z,1004.09
2023-02-25T03:59:39.820Z,1004.25
2023-02-25T04:09:40.156Z,1004.30
2023-02-25T04:19:40.183Z,1004.29
2023-02-25T04:29:40.527Z,1004.45
2023-02-25T04:39:40.570Z,1004.28
2023-02-25T04:49:40.896Z,1004.33
2023-02-25T04:59:40.940Z,1004.16
2023-02-25T05:09:41.276Z,1004.18
2023-02-25T05:19:41.306Z,1004.19
2023-02-25T05:29:41.702Z,1004.25
2023-02-25T05:39:41.800Z,1004.20
2023-02-25T05:49:44.078Z,1004.18
2023-02-25T05:59:42.113Z,1004.17
2023-02-25T06:09:42.480Z,1004.18
2023-02-25T06:19:42.515Z,1004.19
2023-02-25T06:29:42.854Z,1004.22
2023-02-25T06:39:42.886Z,1004.33
2023-02-25T06:49:43.220Z,1004.47
2023-02-25T06:59:43.247Z,1004.55
2023-02-25T07:09:43.600Z,1004.48
2023-02-25T07:19:43.636Z,1004.42
2023-02-25T07:29:43.965Z,1004.32
2023-02-25T07:39:45.178Z,1004.34
2023-02-25T07:49:44.127Z,1004.74
2023-02-25T07:59:44.385Z,1004.74
2023-02-25T08:09:45.619Z,1004.67
2023-02-25T08:19:44.851Z,1004.57
2023-02-25T08:29:45.183Z,1004.42
2023-02-25T08:39:45.216Z,1004.39
2023-02-25T08:49:45.672Z,1004.41
2023-02-25T08:59:45.709Z,1004.33
2023-02-25T09:09:46.050Z,1004.38
2023-02-25T09:19:46.048Z,1004.20
2023-02-25T09:29:46.394Z,1004.25
2023-02-25T09:39:46.529Z,1004.20
2023-02-25T09:49:46.893Z,1004.17
2023-02-25T09:59:47.134Z,1004.17
2023-02-25T10:09:47.171Z,1004.13
2023-02-25T10:19:47.395Z,1004.13
2023-02-25T10:29:47.653Z,1004.08
2023-02-25T10:39:47.912Z,1004.00
2023-02-25T10:49:48.193Z,1003.90
2023-02-25T10:59:48.264Z,1003.85
2023-02-25T11:09:48.364Z,1003.75
2023-02-25T11:19:50.250Z,1003.61
2023-02-25T11:29:48.522Z,1003.55
2023-02-25T11:39:48.545Z,1003.44
2023-02-25T11:49:49.095Z,1003.30
2023-02-25T11:59:48.932Z,1003.23
2023-02-25T12:09:49.248Z,1003.14
2023-02-25T12:19:49.275Z,1003.19
2023-02-25T12:29:49.618Z,1003.28
2023-02-25T12:39:49.658Z,1003.44
2023-02-25T12:49:50.008Z,1003.40
2023-02-25T12:59:50.064Z,1003.49
2023-02-25T13:09:51.920Z,1003.55
2023-02-25T13:19:50.494Z,1003.64
2023-02-25T13:29:52.588Z,1003.50
2023-02-25T13:39:50.744Z,1003.63
2023-02-25T13:49:50.900Z,1003.84
2023-02-25T13:59:50.949Z,1004.01
2023-02-25T14:09:51.446Z,1004.08
2023-02-25T14:19:51.325Z,1004.12
2023-02-25T14:29:51.851Z,1004.19
2023-02-25T14:39:52.018Z,1004.31
2023-02-25T14:49:52.133Z,1004.29
2023-02-25T14:59:52.372Z,1004.33
2023-02-25T15:09:52.478Z,1004.19
2023-02-25T15:19:52.586Z,1004.16
2023-02-25T15:29:52.764Z,1004.11
2023-02-25T15:39:54.374Z,1004.10
2023-02-25T15:49:53.075Z,1004.22
2023-02-25T15:59:53.218Z,1004.28
2023-02-25T16:09:53.149Z,1004.33
2023-02-25T16:19:53.485Z,1004.43
2023-02-25T16:29:53.737Z,1004.44
2023-02-25T16:39:53.995Z,1004.69
2023-02-25T16:49:53.929Z,1004.81
2023-02-25T16:59:54.225Z,1004.82
2023-02-25T17:09:54.467Z,1004.83
2023-02-25T17:19:54.410Z,1005.01
2023-02-25T17:29:54.624Z,1005.10
2023-02-25T17:39:54.847Z,1005.19
2023-02-25T17:49:54.841Z,1005.30
2023-02-25T17:59:55.076Z,1005.37
2023-02-25T18:09:55.240Z,1005.48
2023-02-25T18:19:55.417Z,1005.41
2023-02-25T18:29:55.598Z,1005.42
2023-02-25T18:39:55.810Z,1005.36
2023-02-25T18:49:55.990Z,1005.38
2023-02-25T18:59:56.318Z,1005.25
2023-02-25T19:10:00.120Z,1005.32
2023-02-25T19:19:56.493Z,1005.32
2023-02-25T19:29:56.772Z,1005.30
2023-02-25T19:39:57.475Z,1005.35
2023-02-25T19:49:56.865Z,1005.37
2023-02-25T19:59:57.013Z,1005.33
2023-02-25T20:09:57.284Z,1005.42
2023-02-25T20:19:57.237Z,1005.50
2023-02-25T20:29:58.505Z,1005.46
2023-02-25T20:39:57.529Z,1005.53
2023-02-25T20:49:57.811Z,1005.46
2023-02-25T20:59:58.593Z,1005.42
2023-02-25T21:09:58.089Z,1005.29
2023-02-25T21:19:57.966Z,1005.35
2023-02-25T21:29:58.358Z,1005.28
2023-02-25T21:39:58.300Z,1005.35
2023-02-25T21:49:58.791Z,1005.44
2023-02-25T21:59:58.722Z,1005.49
2023-02-25T22:09:59.029Z,1005.45
2023-02-25T22:19:59.090Z,1005.42
2023-02-25T22:29:59.409Z,1005.40
2023-02-25T22:39:59.444Z,1005.33
2023-02-25T22:49:59.783Z,1005.28
2023-02-25T22:59:59.830Z,1005.26
2023-02-25T23:10:00.193Z,1005.40
2023-02-25T23:20:00.262Z,1005.53
2023-02-25T23:30:00.422Z,1005.72
2023-02-25T23:40:00.463Z,1005.89
2023-02-25T23:50:00.804Z,1005.94
